Time;durP1;ratioP1;P1;durP2;ratioP2;P2;SDS_P1;SDS_P2;PMS_P1;PMS_P2;Temp;Humidity;BMP_temperature;BMP_pressure;BME280_temperature;BME280_humidity;BME280_pressure;Samples;Min_cycle;Max_cycle;Signal;HPM_P1;HPM_P2
2023/03/12 00:01:59;;;;;;;7.17;2.60;;;5.10;99.90;;;;;;7390289;19;20147;-72
2023/03/12 00:04:26;;;;;;;8.10;2.50;;;5.00;99.90;;;;;;7391476;19;20225;-73
2023/03/12 00:06:52;;;;;;;6.93;2.70;;;5.10;99.90;;;;;;7391820;19;20139;-72
2023/03/12 00:09:18;;;;;;;6.90;2.67;;;5.00;99.90;;;;;;7395350;19;20161;-72
2023/03/12 00:11:44;;;;;;;3.90;2.23;;;5.00;99.90;;;;;;7390561;19;20486;-73
2023/03/12 00:14:10;;;;;;;5.90;2.60;;;5.00;99.90;;;;;;7393404;19;20514;-72
2023/03/12 00:16:35;;;;;;;7.17;2.50;;;5.00;99.90;;;;;;7393994;19;20134;-71
2023/03/12 00:19:01;;;;;;;7.37;3.20;;;4.90;99.90;;;;;;7391511;19;20154;-71
2023/03/12 00:21:27;;;;;;;7.87;3.27;;;4.90;99.90;;;;;;7391727;19;20178;-73
2023/03/12 00:23:53;;;;;;;8.63;3.10;;;4.80;99.90;;;;;;7392874;19;20150;-72
2023/03/12 00:26:20;;;;;;;10.93;3.23;;;4.80;99.90;;;;;;7389217;19;21076;-74
2023/03/12 00:28:48;;;;;;;8.33;3.80;;;4.80;99.90;;;;;;7391290;19;20266;-76
2023/03/12 00:31:23;;;;;;;7.23;3.40;;;4.90;99.90;;;;;;7392155;19;20139;-74
2023/03/12 00:33:49;;;;;;;10.17;3.93;;;4.80;99.90;;;;;;7391395;19;20153;-73
2023/03/12 00:36:16;;;;;;;8.20;4.80;;;4.80;99.90;;;;;;7391618;19;20138;-76
2023/03/12 00:38:44;;;;;;;6.93;3.57;;;4.80;99.90;;;;;;7391400;19;20165;-74
2023/03/12 00:41:11;;;;;;;6.13;3.30;;;4.80;99.90;;;;;;7389689;19;20155;-74
2023/03/12 00:43:37;;;;;;;9.33;3.70;;;4.70;99.90;;;;;;7389602;19;20166;-73
2023/03/12 00:46:03;;;;;;;7.17;4.63;;;4.80;99.90;;;;;;7390396;19;20134;-71
2023/03/12 00:48:29;;;;;;;9.20;4.17;;;4.80;99.90;;;;;;7391667;19;20543;-72
2023/03/12 00:50:55;;;;;;;7.70;3.73;;;4.80;99.90;;;;;;7392109;19;20131;-72
2023/03/12 00:53:20;;;;;;;7.20;3.47;;;4.90;99.90;;;;;;7392297;19;20254;-72
2023/03/12 00:55:46;;;;;;;8.70;3.33;;;4.70;99.90;;;;;;7388169;19;20150;-72
2023/03/12 00:58:12;;;;;;;10.37;4.30;;;4.70;99.90;;;;;;7390440;19;20158;-72
2023/03/12 01:00:38;;;;;;;8.53;3.77;;;4.70;99.90;;;;;;7390906;19;20165;-75
2023/03/12 01:03:03;;;;;;;7.27;4.20;;;4.80;99.90;;;;;;7390481;19;20233;-72
2023/03/12 01:05:30;;;;;;;10.20;3.53;;;4.70;99.90;;;;;;7386974;19;20623;-72
2023/03/12 01:07:56;;;;;;;7.37;3.50;;;4.70;99.90;;;;;;7391377;19;20142;-72
2023/03/12 01:10:22;;;;;;;6.40;3.50;;;4.70;99.90;;;;;;7388677;19;20158;-73
2023/03/12 01:12:48;;;;;;;7.30;3.30;;;4.70;99.90;;;;;;7390634;19;20135;-72
2023/03/12 01:15:16;;;;;;;7.60;3.60;;;4.50;99.90;;;;;;7388670;19;20620;-72
2023/03/12 01:17:41;;;;;;;5.90;3.30;;;4.50;99.90;;;;;;7389888;19;20254;-71
2023/03/12 01:20:08;;;;;;;7.83;3.80;;;4.60;99.90;;;;;;7389505;19;20150;-72
2023/03/12 01:22:35;;;;;;;8.10;3.10;;;4.60;99.90;;;;;;7390696;19;20139;-73
2023/03/12 01:25:00;;;;;;;10.60;3.73;;;4.60;99.90;;;;;;7387717;19;20148;-72
2023/03/12 01:27:26;;;;;;;7.90;3.63;;;4.70;99.90;;;;;;7386359;19;20187;-73
2023/03/12 01:29:52;;;;;;;5.37;3.37;;;4.70;99.90;;;;;;7389026;19;20246;-72
2023/03/12 01:32:18;;;;;;;8.70;3.57;;;4.70;99.90;;;;;;7389844;19;20134;-73
2023/03/12 01:34:43;;;;;;;5.90;3.73;;;4.70;99.90;;;;;;7390348;19;20142;-72
2023/03/12 01:37:10;;;;;;;9.63;3.63;;;4.70;99.90;;;;;;7390668;19;20146;-72
2023/03/12 01:39:35;;;;;;;7.90;3.77;;;4.80;99.90;;;;;;7389140;19;20179;-72
2023/03/12 01:42:03;;;;;;;5.97;3.53;;;4.70;99.90;;;;;;7389451;19;20582;-70
2023/03/12 01:44:29;;;;;;;8.07;3.80;;;4.60;99.90;;;;;;7387024;19;20138;-71
2023/03/12 01:46:54;;;;;;;7.50;3.40;;;4.60;99.90;;;;;;7390160;19;20237;-72
2023/03/12 01:49:30;;;;;;;8.60;3.63;;;4.40;99.90;;;;;;7389864;19;20134;-72
2023/03/12 01:52:03;;;;;;;7.50;3.70;;;4.20;99.90;;;;;;7388343;19;20174;-73
2023/03/12 01:54:32;;;;;;;7.47;3.67;;;4.30;99.90;;;;;;7388399;19;20214;-72
2023/03/12 01:56:58;;;;;;;7.77;3.27;;;4.60;99.90;;;;;;7389690;19;20146;-73
2023/03/12 01:59:30;;;;;;;8.53;3.70;;;4.70;99.90;;;;;;7388333;19;20150;-72
2023/03/12 02:01:56;;;;;;;7.83;3.57;;;4.80;99.90;;;;;;7387492;19;20150;-72
2023/03/12 02:04:25;;;;;;;7.80;3.40;;;4.80;99.90;;;;;;7387559;19;20155;-73
2023/03/12 02:07:00;;;;;;;6.43;3.30;;;4.90;99.90;;;;;;7385182;19;20139;-72
2023/03/12 02:09:27;;;;;;;8.23;3.60;;;4.80;99.90;;;;;;7386966;19;20171;-73
2023/03/12 02:11:52;;;;;;;6.17;3.43;;;4.80;99.90;;;;;;7387694;19;20143;-72
2023/03/12 02:14:18;;;;;;;5.70;3.40;;;4.70;99.90;;;;;;7389208;19;20178;-72
2023/03/12 02:16:44;;;;;;;7.63;3.80;;;4.60;99.90;;;;;;7386936;19;20154;-72
2023/03/12 02:19:37;;;;;;;7.63;3.43;;;4.70;99.90;;;;;;7387824;19;20699;-71
2023/03/12 02:22:03;;;;;;;5.80;3.70;;;4.80;99.90;;;;;;7388158;19;20157;-72
2023/03/12 02:24:42;;;;;;;7.57;3.80;;;4.90;99.90;;;;;;7385124;19;20147;-72
2023/03/12 02:27:10;;;;;;;9.33;3.43;;;4.90;99.90;;;;;;7383043;19;20138;-71
2023/03/12 02:29:39;;;;;;;5.97;3.63;;;4.60;99.90;;;;;;7388088;19;20150;-73
2023/03/12 02:32:08;;;;;;;7.07;3.80;;;4.70;99.90;;;;;;7384778;19;20148;-72
2023/03/12 02:34:34;;;;;;;6.97;3.70;;;4.80;99.90;;;;;;7383183;19;20153;-71
2023/03/12 02:37:00;;;;;;;6.37;3.50;;;4.80;99.90;;;;;;7387528;19;20173;-73
2023/03/12 02:39:27;;;;;;;6.37;3.50;;;4.80;99.90;;;;;;7387747;19;20595;-73
2023/03/12 02:41:59;;;;;;;5.03;3.37;;;4.60;99.90;;;;;;7384822;19;20472;-72
2023/03/12 02:44:28;;;;;;;5.93;3.50;;;4.60;99.90;;;;;;7384241;19;20156;-73
2023/03/12 02:46:56;;;;;;;6.07;3.40;;;4.70;99.90;;;;;;7384110;19;20198;-72
2023/03/12 02:49:26;;;;;;;6.33;3.43;;;4.80;99.90;;;;;;7389206;19;20165;-72
2023/03/12 02:51:53;;;;;;;10.93;3.90;;;4.80;99.90;;;;;;7380848;19;20652;-72
2023/03/12 02:54:20;;;;;;;6.50;3.50;;;4.90;99.90;;;;;;7372727;19;20135;-71
2023/03/12 02:56:47;;;;;;;7.50;4.50;;;4.80;99.90;;;;;;7386125;19;20138;-73
2023/03/12 02:59:14;;;;;;;6.70;3.90;;;4.10;99.90;;;;;;7387135;19;20180;-73
2023/03/12 03:01:41;;;;;;;6.97;3.80;;;4.00;99.90;;;;;;7383496;19;20167;-73
2023/03/12 03:04:10;;;;;;;5.87;3.63;;;4.30;99.90;;;;;;7386440;19;20150;-73
2023/03/12 03:06:38;;;;;;;7.43;4.07;;;4.20;99.90;;;;;;7383888;19;20155;-72
2023/03/12 03:09:05;;;;;;;7.67;4.00;;;4.20;99.90;;;;;;7387761;19;20225;-72
2023/03/12 03:11:31;;;;;;;7.63;3.83;;;4.40;99.90;;;;;;7386052;19;20550;-72
2023/03/12 03:13:57;;;;;;;7.70;4.17;;;4.50;99.90;;;;;;7385491;19;20151;-73
2023/03/12 03:16:23;;;;;;;7.83;3.87;;;4.70;99.90;;;;;;7386409;19;20131;-73
2023/03/12 03:18:49;;;;;;;6.83;3.90;;;4.70;99.90;;;;;;7387385;19;20266;-73
2023/03/12 03:21:16;;;;;;;6.83;3.90;;;4.70;99.90;;;;;;7387124;19;20698;-72
2023/03/12 03:23:47;;;;;;;7.43;4.20;;;4.70;99.90;;;;;;7384823;19;20142;-72
2023/03/12 03:26:14;;;;;;;6.50;4.00;;;4.60;99.90;;;;;;7383849;19;20505;-72
2023/03/12 03:28:39;;;;;;;9.97;4.60;;;4.50;99.90;;;;;;7390352;19;20134;-72
2023/03/12 03:31:06;;;;;;;6.30;4.13;;;4.30;99.90;;;;;;7392222;19;20596;-74
2023/03/12 03:33:34;;;;;;;8.70;3.90;;;4.50;99.90;;;;;;7392146;19;20135;-72
2023/03/12 03:36:00;;;;;;;9.40;4.00;;;4.40;99.90;;;;;;7392233;19;20568;-73
2023/03/12 03:38:28;;;;;;;7.47;4.00;;;4.20;99.90;;;;;;7389926;19;20139;-71
2023/03/12 03:40:54;;;;;;;7.00;3.73;;;4.50;99.90;;;;;;7394583;19;20142;-72
2023/03/12 03:43:22;;;;;;;9.17;3.63;;;4.60;99.90;;;;;;7391178;19;20135;-73
2023/03/12 03:45:48;;;;;;;7.90;4.43;;;4.60;99.90;;;;;;7393356;19;20172;-72
2023/03/12 03:48:13;;;;;;;7.13;4.27;;;4.30;99.90;;;;;;7391228;19;20165;-72
2023/03/12 03:50:40;;;;;;;8.93;4.30;;;4.50;99.90;;;;;;7391710;19;20154;-72
2023/03/12 03:53:08;;;;;;;6.30;3.70;;;4.40;99.90;;;;;;7390764;19;20142;-72
2023/03/12 03:55:40;;;;;;;8.30;3.90;;;4.20;99.90;;;;;;7391177;19;20143;-72
2023/03/12 03:58:06;;;;;;;7.77;3.37;;;4.20;99.90;;;;;;7391617;19;20139;-73
2023/03/12 04:00:33;;;;;;;6.27;3.80;;;4.60;99.90;;;;;;7389996;19;20162;-72
2023/03/12 04:02:59;;;;;;;6.37;3.83;;;4.70;99.90;;;;;;7390408;19;20214;-72
2023/03/12 04:05:24;;;;;;;7.37;3.93;;;4.70;99.90;;;;;;7391013;19;20479;-72
2023/03/12 04:07:54;;;;;;;7.10;3.83;;;4.80;99.90;;;;;;7388269;19;20154;-73
2023/03/12 04:10:21;;;;;;;6.70;3.70;;;4.60;99.90;;;;;;7395112;19;20126;-72
2023/03/12 04:12:46;;;;;;;5.97;3.60;;;4.50;99.90;;;;;;7391774;19;20162;-72
2023/03/12 04:15:12;;;;;;;6.07;3.57;;;4.50;99.90;;;;;;7394763;19;20139;-72
2023/03/12 04:17:38;;;;;;;10.03;4.27;;;4.60;99.90;;;;;;7391962;19;20768;-72
2023/03/12 04:20:08;;;;;;;7.00;3.87;;;4.80;99.90;;;;;;7390255;19;20142;-73
2023/03/12 04:22:34;;;;;;;6.83;3.87;;;4.90;99.90;;;;;;7391445;19;20155;-72
2023/03/12 04:25:00;;;;;;;5.90;3.63;;;5.00;99.90;;;;;;7391141;19;20168;-73
2023/03/12 04:27:26;;;;;;;8.20;4.00;;;4.90;99.90;;;;;;7389750;19;20146;-72
2023/03/12 04:29:52;;;;;;;7.23;4.03;;;5.00;99.90;;;;;;7392508;19;20587;-73
2023/03/12 04:32:17;;;;;;;4.50;3.23;;;5.10;99.90;;;;;;7391894;19;20147;-71
2023/03/12 04:34:43;;;;;;;9.27;3.70;;;5.00;99.90;;;;;;7390199;19;20496;-72
2023/03/12 04:37:15;;;;;;;8.70;4.03;;;4.90;99.90;;;;;;7387062;19;20143;-72
2023/03/12 04:39:42;;;;;;;7.07;3.83;;;4.90;99.90;;;;;;7386048;19;20150;-71
2023/03/12 04:42:08;;;;;;;6.17;3.47;;;5.00;99.90;;;;;;7393692;19;20135;-72
2023/03/12 04:44:35;;;;;;;7.73;3.80;;;5.00;99.90;;;;;;7390048;19;20165;-72
2023/03/12 04:47:01;;;;;;;7.00;3.87;;;4.70;99.90;;;;;;7389681;19;20154;-72
2023/03/12 04:49:27;;;;;;;7.90;4.03;;;4.50;99.90;;;;;;7388312;19;20150;-72
2023/03/12 04:51:53;;;;;;;11.50;3.77;;;4.80;99.90;;;;;;7389412;19;20154;-73
2023/03/12 04:54:19;;;;;;;6.77;4.10;;;4.80;99.90;;;;;;7386781;19;20178;-72
2023/03/12 04:56:46;;;;;;;5.57;3.43;;;4.70;99.90;;;;;;7387452;19;20162;-73
2023/03/12 04:59:12;;;;;;;10.50;3.73;;;4.80;99.90;;;;;;7386390;19;20155;-72
2023/03/12 05:01:38;;;;;;;6.97;3.70;;;5.00;99.90;;;;;;7388218;19;20146;-73
2023/03/12 05:04:05;;;;;;;5.47;3.50;;;5.00;99.90;;;;;;7386883;19;20155;-73
2023/03/12 05:06:31;;;;;;;5.53;3.47;;;5.00;99.90;;;;;;7387206;19;20586;-72
2023/03/12 05:08:57;;;;;;;7.87;3.37;;;5.00;99.90;;;;;;7385895;19;20494;-72
2023/03/12 05:11:23;;;;;;;5.43;3.67;;;4.80;99.90;;;;;;7392873;19;20134;-73
2023/03/12 05:13:49;;;;;;;6.03;3.60;;;4.80;99.90;;;;;;7388027;19;20162;-73
2023/03/12 05:16:15;;;;;;;5.87;3.47;;;4.70;99.90;;;;;;7392535;19;20209;-73
2023/03/12 05:18:42;;;;;;;8.03;4.00;;;4.90;99.90;;;;;;7385955;19;20164;-73
2023/03/12 05:21:12;;;;;;;6.97;4.00;;;5.00;99.90;;;;;;7389616;19;20667;-73
2023/03/12 05:23:41;;;;;;;7.43;3.73;;;5.10;99.90;;;;;;7387172;19;20130;-72
2023/03/12 05:26:19;;;;;;;7.03;3.60;;;5.20;99.90;;;;;;7389252;19;20156;-73
2023/03/12 05:28:46;;;;;;;8.03;3.50;;;5.20;99.90;;;;;;7387598;19;20497;-72
2023/03/12 05:31:12;;;;;;;6.73;3.50;;;5.20;99.90;;;;;;7389275;19;20150;-73
2023/03/12 05:33:38;;;;;;;5.40;3.40;;;5.10;99.90;;;;;;7389671;19;20139;-73
2023/03/12 05:36:04;;;;;;;6.97;3.90;;;5.20;99.90;;;;;;7386808;19;20655;-72
2023/03/12 05:38:30;;;;;;;6.23;3.43;;;5.20;99.90;;;;;;7387227;19;20167;-73
2023/03/12 05:40:58;;;;;;;6.43;3.70;;;5.30;99.90;;;;;;7387988;19;20143;-73
2023/03/12 05:43:24;;;;;;;4.80;3.43;;;5.20;99.90;;;;;;7390259;19;20146;-72
2023/03/12 05:45:51;;;;;;;6.40;3.07;;;5.20;99.90;;;;;;7388675;19;20150;-71
2023/03/12 05:48:18;;;;;;;6.80;3.70;;;5.10;99.90;;;;;;7387762;19;20209;-74
2023/03/12 05:50:44;;;;;;;5.73;3.30;;;5.20;99.90;;;;;;7387935;19;20491;-71
2023/03/12 05:53:10;;;;;;;6.77;3.80;;;5.00;99.90;;;;;;7387803;19;20135;-73
2023/03/12 05:55:38;;;;;;;5.90;3.23;;;5.10;99.90;;;;;;7388747;19;20155;-73
2023/03/12 05:58:05;;;;;;;4.87;3.20;;;5.30;99.90;;;;;;7388299;19;20138;-70
2023/03/12 06:00:31;;;;;;;6.97;3.60;;;5.30;99.90;;;;;;7386363;19;20154;-72
2023/03/12 06:02:57;;;;;;;9.00;3.73;;;5.30;99.90;;;;;;7388100;19;20158;-73
2023/03/12 06:05:24;;;;;;;6.40;3.57;;;5.30;99.90;;;;;;7388333;19;20142;-72
2023/03/12 06:07:49;;;;;;;6.93;3.43;;;5.30;99.90;;;;;;7386654;19;20480;-72
2023/03/12 06:10:15;;;;;;;7.40;3.97;;;5.20;99.90;;;;;;7388757;19;20151;-73
2023/03/12 06:12:41;;;;;;;6.43;3.67;;;5.00;99.90;;;;;;7386893;19;20202;-72
2023/03/12 06:15:07;;;;;;;5.47;3.40;;;5.20;99.90;;;;;;7388500;19;20138;-73
2023/03/12 06:17:33;;;;;;;7.53;3.10;;;5.40;99.90;;;;;;7387240;19;20150;-73
2023/03/12 06:20:03;;;;;;;5.13;3.20;;;5.20;99.90;;;;;;7387414;19;20243;-72
2023/03/12 06:22:28;;;;;;;8.40;3.47;;;5.30;99.90;;;;;;7387741;19;20158;-73
2023/03/12 06:24:54;;;;;;;6.30;3.60;;;5.40;99.90;;;;;;7387654;19;20154;-72
2023/03/12 06:27:20;;;;;;;12.37;3.33;;;5.30;99.90;;;;;;7386122;19;20161;-71
2023/03/12 06:29:46;;;;;;;5.73;3.23;;;5.40;99.90;;;;;;7388097;19;20135;-72
2023/03/12 06:32:12;;;;;;;7.70;3.57;;;5.40;99.90;;;;;;7387154;19;20142;-72
2023/03/12 06:34:38;;;;;;;7.73;4.03;;;5.60;99.90;;;;;;7385818;19;20138;-71
2023/03/12 06:37:04;;;;;;;6.43;4.13;;;5.50;99.90;;;;;;7387754;19;20142;-72
2023/03/12 06:39:30;;;;;;;5.47;3.40;;;5.50;99.90;;;;;;7386399;19;20431;-72
2023/03/12 06:41:55;;;;;;;5.67;3.97;;;5.50;99.90;;;;;;7386607;19;20270;-72
2023/03/12 06:44:21;;;;;;;6.57;3.97;;;5.10;99.90;;;;;;7387651;19;20600;-72
2023/03/12 06:46:47;;;;;;;9.83;3.93;;;5.10;99.90;;;;;;7386532;19;20499;-73
2023/03/12 06:49:14;;;;;;;5.03;3.87;;;5.00;99.90;;;;;;7388837;19;20138;-71
2023/03/12 06:51:40;;;;;;;5.53;3.80;;;5.20;99.90;;;;;;7385488;19;20159;-72
2023/03/12 06:54:06;;;;;;;6.93;3.50;;;5.20;99.90;;;;;;7387786;19;20210;-72
2023/03/12 06:56:32;;;;;;;8.13;3.87;;;5.20;99.90;;;;;;7386629;19;20568;-72
2023/03/12 06:58:58;;;;;;;6.03;3.63;;;5.30;99.90;;;;;;7384083;19;20202;-72
2023/03/12 07:01:23;;;;;;;7.67;3.53;;;5.40;99.90;;;;;;7386498;19;20214;-72
2023/03/12 07:03:49;;;;;;;9.17;3.30;;;5.50;99.90;;;;;;7393236;19;20193;-71
2023/03/12 07:06:18;;;;;;;7.80;3.50;;;5.50;99.90;;;;;;7391649;19;20141;-71
2023/03/12 07:08:44;;;;;;;8.00;4.30;;;5.50;99.90;;;;;;7396705;19;20584;-72
2023/03/12 07:11:10;;;;;;;6.97;3.47;;;5.60;99.90;;;;;;7393644;19;20550;-72
2023/03/12 07:13:36;;;;;;;6.60;3.60;;;5.50;99.90;;;;;;7391579;19;20145;-71
2023/03/12 07:16:03;;;;;;;7.13;3.60;;;5.50;99.90;;;;;;7392579;19;20139;-72
2023/03/12 07:18:29;;;;;;;6.73;3.23;;;5.60;99.90;;;;;;7394897;19;20518;-72
2023/03/12 07:20:54;;;;;;;8.43;3.77;;;5.60;99.90;;;;;;7392366;19;20152;-72
2023/03/12 07:23:21;;;;;;;7.00;3.50;;;5.60;99.90;;;;;;7391810;19;20150;-70
2023/03/12 07:25:47;;;;;;;5.83;3.70;;;5.60;99.90;;;;;;7395480;19;20222;-73
2023/03/12 07:28:13;;;;;;;7.13;3.80;;;5.60;99.90;;;;;;7393839;19;20143;-72
2023/03/12 07:30:39;;;;;;;7.20;3.43;;;5.40;99.90;;;;;;7392539;19;20149;-72
2023/03/12 07:33:10;;;;;;;5.40;3.30;;;5.20;99.90;;;;;;7392475;19;20157;-71
2023/03/12 07:35:37;;;;;;;5.63;3.27;;;5.30;99.90;;;;;;7392062;19;20143;-72
2023/03/12 07:38:04;;;;;;;5.10;3.40;;;5.50;99.90;;;;;;7391958;19;20146;-73
2023/03/12 07:40:30;;;;;;;4.83;3.70;;;5.70;99.90;;;;;;7391905;19;20166;-73
2023/03/12 07:42:57;;;;;;;6.70;3.50;;;5.80;99.90;;;;;;7391006;19;20134;-72
2023/03/12 07:45:23;;;;;;;5.40;3.87;;;5.70;99.90;;;;;;7392735;19;20159;-73
2023/03/12 07:47:49;;;;;;;8.23;3.57;;;5.70;99.90;;;;;;7390818;19;20147;-73
2023/03/12 07:50:16;;;;;;;5.20;3.10;;;5.90;99.90;;;;;;7390913;19;20142;-73
2023/03/12 07:52:42;;;;;;;5.33;3.20;;;5.90;99.90;;;;;;7393803;19;20172;-73
2023/03/12 07:55:09;;;;;;;6.70;3.50;;;6.00;99.90;;;;;;7387717;19;20139;-72
2023/03/12 07:57:35;;;;;;;5.20;3.50;;;6.10;99.90;;;;;;7391900;19;20473;-72
2023/03/12 08:00:01;;;;;;;4.47;3.20;;;6.10;99.90;;;;;;7388759;19;20163;-73
2023/03/12 08:02:26;;;;;;;7.50;3.43;;;6.30;99.90;;;;;;7389667;19;20135;-73
2023/03/12 08:04:52;;;;;;;6.50;3.43;;;6.30;99.90;;;;;;7391252;19;20154;-73
2023/03/12 08:07:18;;;;;;;6.23;3.70;;;6.50;99.90;;;;;;7392042;19;20521;-73
2023/03/12 08:09:44;;;;;;;6.37;3.40;;;6.50;99.90;;;;;;7391319;19;20146;-73
2023/03/12 08:12:10;;;;;;;6.73;3.60;;;6.50;99.90;;;;;;7388144;19;20138;-72
2023/03/12 08:14:36;;;;;;;6.73;3.47;;;6.50;99.90;;;;;;7391575;19;20918;-73
2023/03/12 08:17:02;;;;;;;5.90;3.73;;;6.40;99.90;;;;;;7388788;19;20146;-72
2023/03/12 08:19:27;;;;;;;7.73;3.80;;;6.40;99.90;;;;;;7390955;19;20130;-72
2023/03/12 08:21:54;;;;;;;5.33;3.53;;;6.40;99.90;;;;;;7389280;19;20158;-72
2023/03/12 08:24:21;;;;;;;5.87;3.60;;;6.40;99.90;;;;;;7390615;19;20134;-73
2023/03/12 08:26:46;;;;;;;4.40;3.30;;;6.40;99.90;;;;;;7388543;19;20151;-73
2023/03/12 08:29:13;;;;;;;4.23;3.10;;;6.10;99.90;;;;;;7388287;19;20226;-72
2023/03/12 08:31:38;;;;;;;6.77;3.10;;;6.40;99.90;;;;;;7385925;19;20218;-72
2023/03/12 08:34:04;;;;;;;8.00;3.20;;;6.40;99.90;;;;;;7388165;19;20554;-73
2023/03/12 08:36:30;;;;;;;5.80;3.80;;;6.50;99.90;;;;;;7390663;19;20143;-73
2023/03/12 08:38:55;;;;;;;11.30;4.50;;;6.50;99.90;;;;;;7389710;19;20567;-74
2023/03/12 08:41:21;;;;;;;6.23;3.50;;;6.50;99.90;;;;;;7391612;19;20127;-72
2023/03/12 08:43:47;;;;;;;6.53;3.70;;;6.10;99.90;;;;;;7388422;19;20127;-73
2023/03/12 08:46:13;;;;;;;5.63;3.57;;;6.30;99.90;;;;;;7387629;19;20151;-72
2023/03/12 08:48:39;;;;;;;5.40;3.23;;;6.30;99.90;;;;;;7391671;19;20146;-73
2023/03/12 08:51:06;;;;;;;5.37;3.90;;;6.50;99.90;;;;;;7389592;19;20165;-73
2023/03/12 08:53:34;;;;;;;6.87;4.23;;;6.60;99.90;;;;;;7390365;19;20138;-73
2023/03/12 08:56:00;;;;;;;6.20;3.47;;;6.70;99.90;;;;;;7389767;19;20135;-73
2023/03/12 08:58:27;;;;;;;5.17;3.80;;;6.70;99.90;;;;;;7392521;19;20139;-73
2023/03/12 09:00:53;;;;;;;4.70;3.60;;;6.80;99.90;;;;;;7388280;19;20264;-73
2023/03/12 09:03:20;;;;;;;5.90;3.73;;;6.80;99.90;;;;;;7390496;19;20146;-73
2023/03/12 09:05:47;;;;;;;6.20;3.97;;;6.80;99.90;;;;;;7388402;19;20155;-72
2023/03/12 09:08:13;;;;;;;6.13;4.10;;;6.90;99.90;;;;;;7392321;19;20171;-74
2023/03/12 09:10:39;;;;;;;5.23;3.47;;;6.90;99.90;;;;;;7390780;19;20146;-73
2023/03/12 09:13:06;;;;;;;9.23;4.90;;;6.90;99.90;;;;;;7388793;19;20275;-73
2023/03/12 09:15:32;;;;;;;8.80;4.90;;;6.80;99.90;;;;;;7388098;19;20154;-74
2023/03/12 09:17:58;;;;;;;7.37;4.73;;;6.60;99.90;;;;;;7389071;19;20218;-72
2023/03/12 09:20:25;;;;;;;7.00;4.50;;;6.90;99.90;;;;;;7389012;19;20138;-74
2023/03/12 09:22:51;;;;;;;6.80;4.43;;;7.00;99.90;;;;;;7389432;19;20154;-72
2023/03/12 09:25:18;;;;;;;6.23;3.87;;;6.60;99.90;;;;;;7386983;19;20174;-73
2023/03/12 09:27:45;;;;;;;4.83;4.00;;;6.90;99.90;;;;;;7387529;19;20131;-74
2023/03/12 09:30:14;;;;;;;9.23;4.17;;;7.10;99.90;;;;;;7388322;19;20165;-74
2023/03/12 09:32:46;;;;;;;6.37;4.70;;;7.40;99.90;;;;;;7390582;19;20145;-72
2023/03/12 09:35:14;;;;;;;12.03;6.43;;;7.50;99.90;;;;;;7389286;19;20927;-72
2023/03/12 09:37:40;;;;;;;7.63;5.40;;;7.60;99.90;;;;;;7391063;19;20187;-73
2023/03/12 09:40:07;;;;;;;8.07;4.83;;;7.60;99.90;;;;;;7388758;19;20146;-72
2023/03/12 09:42:45;;;;;;;8.10;4.33;;;7.70;99.90;;;;;;7390259;19;20138;-74
2023/03/12 09:45:35;;;;;;;9.00;4.87;;;7.60;99.90;;;;;;7387415;19;20130;-74
2023/03/12 09:48:06;;;;;;;7.23;4.83;;;7.70;99.90;;;;;;7387205;19;20146;-70
2023/03/12 09:50:39;;;;;;;8.47;4.80;;;7.80;99.90;;;;;;7382773;19;20217;-74
2023/03/12 09:53:21;;;;;;;12.37;5.13;;;7.70;99.90;;;;;;7386985;19;20146;-72
2023/03/12 09:55:50;;;;;;;7.27;5.00;;;7.90;99.90;;;;;;7378514;19;20142;-73
2023/03/12 09:58:38;;;;;;;8.63;5.53;;;7.90;99.90;;;;;;7381571;19;20138;-74
2023/03/12 10:01:19;;;;;;;9.50;5.33;;;7.90;99.90;;;;;;7382377;19;20486;-72
2023/03/12 10:03:54;;;;;;;10.80;5.50;;;8.10;99.90;;;;;;7388388;19;20146;-73
2023/03/12 10:06:25;;;;;;;6.47;4.70;;;8.10;99.90;;;;;;7389698;19;20149;-72
2023/03/12 10:09:03;;;;;;;6.50;5.13;;;8.20;99.90;;;;;;7384612;19;20214;-73
2023/03/12 10:11:41;;;;;;;8.17;5.57;;;8.30;99.90;;;;;;7381413;19;20150;-73
2023/03/12 10:14:25;;;;;;;10.90;5.87;;;8.40;99.90;;;;;;7382114;19;20146;-73
2023/03/12 10:17:09;;;;;;;7.10;4.83;;;8.40;99.90;;;;;;7384005;19;20130;-73
2023/03/12 10:20:06;;;;;;;8.53;4.83;;;8.40;99.90;;;;;;7378393;19;20550;-73
2023/03/12 10:22:45;;;;;;;8.47;5.13;;;8.50;99.90;;;;;;7387254;19;20202;-72
2023/03/12 10:25:29;;;;;;;8.20;5.03;;;8.60;99.90;;;;;;7387436;19;20610;-73
2023/03/12 10:28:03;;;;;;;6.10;5.30;;;8.70;99.90;;;;;;7384055;19;20150;-73
2023/03/12 10:30:32;;;;;;;6.83;4.93;;;8.80;99.90;;;;;;7386588;19;20134;-72
2023/03/12 10:33:05;;;;;;;10.80;5.10;;;8.80;99.90;;;;;;7383700;19;20153;-73
2023/03/12 10:35:31;;;;;;;7.93;5.23;;;8.80;99.90;;;;;;7387462;19;20130;-74
2023/03/12 10:38:00;;;;;;;6.43;4.90;;;8.80;99.90;;;;;;7393370;19;20149;-72
2023/03/12 10:40:35;;;;;;;7.93;4.93;;;8.90;99.90;;;;;;7395859;19;20437;-73
2023/03/12 10:43:02;;;;;;;8.83;5.33;;;9.20;99.90;;;;;;7394507;19;20206;-72
2023/03/12 10:45:49;;;;;;;7.33;5.00;;;9.10;99.90;;;;;;7393215;19;20852;-74
2023/03/12 10:48:21;;;;;;;5.60;4.40;;;9.10;99.90;;;;;;7391262;19;20151;-74
2023/03/12 10:51:03;;;;;;;7.53;4.73;;;9.10;99.90;;;;;;7393232;19;20126;-73
2023/03/12 10:53:33;;;;;;;6.47;4.33;;;9.10;99.90;;;;;;7391717;19;20142;-74
2023/03/12 10:56:01;;;;;;;3.70;2.60;;;8.90;99.90;;;;;;7391077;19;20135;-72
2023/03/12 10:58:38;;;;;;;2.10;1.80;;;9.00;99.90;;;;;;7389145;19;20150;-72
2023/03/12 11:01:14;;;;;;;2.77;2.00;;;9.20;99.90;;;;;;7392457;19;20147;-74
2023/03/12 11:03:42;;;;;;;3.40;1.33;;;9.30;99.90;;;;;;7391269;19;20193;-73
2023/03/12 11:06:14;;;;;;;2.50;1.50;;;9.30;99.90;;;;;;7391712;19;20152;-73
2023/03/12 11:08:41;;;;;;;2.57;1.30;;;9.40;99.90;;;;;;7393811;19;20159;-72
2023/03/12 11:11:09;;;;;;;1.93;1.33;;;9.50;99.90;;;;;;7392181;19;20150;-73
2023/03/12 11:13:37;;;;;;;2.70;1.47;;;9.70;99.90;;;;;;7392760;19;20225;-74
2023/03/12 11:16:27;;;;;;;2.00;1.50;;;9.70;99.90;;;;;;7391853;19;20163;-72
2023/03/12 11:19:00;;;;;;;1.73;1.40;;;9.90;99.90;;;;;;7386508;19;20390;-74
2023/03/12 11:21:27;;;;;;;2.20;1.30;;;10.00;99.90;;;;;;7392679;19;20557;-74
2023/03/12 11:23:56;;;;;;;1.60;1.30;;;10.00;99.90;;;;;;7388413;19;21075;-74
2023/03/12 11:26:27;;;;;;;2.03;1.40;;;10.10;99.90;;;;;;7389198;19;20163;-73
2023/03/12 11:29:17;;;;;;;3.07;1.77;;;10.40;99.90;;;;;;7390074;19;20395;-74
2023/03/12 11:32:01;;;;;;;2.30;1.40;;;10.60;99.90;;;;;;7389218;19;20146;-73
2023/03/12 11:34:33;;;;;;;3.83;2.33;;;10.60;99.90;;;;;;7386138;19;20135;-74
2023/03/12 11:37:30;;;;;;;1.70;1.37;;;10.60;99.90;;;;;;7390275;19;20131;-74
2023/03/12 11:40:13;;;;;;;2.53;1.07;;;10.70;99.90;;;;;;7388731;19;20159;-73
2023/03/12 11:42:49;;;;;;;1.00;0.90;;;10.80;99.90;;;;;;7390693;19;20607;-74
2023/03/12 11:45:25;;;;;;;1.93;0.93;;;10.90;99.90;;;;;;7392013;19;20145;-74
2023/03/12 11:48:22;;;;;;;1.87;1.20;;;10.80;99.90;;;;;;7386320;19;20146;-73
2023/03/12 11:51:12;;;;;;;1.20;0.80;;;10.90;99.90;;;;;;7391456;19;20161;-74
2023/03/12 11:54:09;;;;;;;2.33;1.37;;;10.80;99.90;;;;;;7391143;19;20155;-74
2023/03/12 11:56:45;;;;;;;2.63;0.80;;;10.90;99.90;;;;;;7390875;19;20647;-76
2023/03/12 11:59:47;;;;;;;1.70;1.00;;;10.90;99.90;;;;;;7392257;19;20134;-74
2023/03/12 12:02:48;;;;;;;2.00;0.77;;;11.10;99.90;;;;;;7391789;19;20134;-74
2023/03/12 12:05:28;;;;;;;3.13;1.10;;;11.30;99.90;;;;;;7393062;19;20206;-73
2023/03/12 12:08:16;;;;;;;1.43;0.60;;;11.30;99.90;;;;;;7386913;19;20142;-73
2023/03/12 12:10:59;;;;;;;1.77;0.60;;;11.40;99.90;;;;;;7388515;19;20127;-72
2023/03/12 12:13:41;;;;;;;1.90;0.93;;;11.40;99.90;;;;;;7391446;19;20153;-74
2023/03/12 12:16:28;;;;;;;1.17;0.80;;;11.40;99.90;;;;;;7390840;19;20135;-73
2023/03/12 12:19:17;;;;;;;3.08;1.00;;;11.20;99.90;;;;;;7391074;19;20130;-74
2023/03/12 12:22:00;;;;;;;0.63;0.60;;;11.40;99.90;;;;;;7386837;19;20619;-73
2023/03/12 12:24:28;;;;;;;1.30;0.80;;;11.40;99.90;;;;;;7393778;19;20135;-73
2023/03/12 12:26:59;;;;;;;2.17;0.90;;;11.40;99.90;;;;;;7387466;19;20254;-74
2023/03/12 12:29:44;;;;;;;3.33;1.17;;;11.40;99.90;;;;;;7391810;19;20130;-74
2023/03/12 12:32:18;;;;;;;1.93;0.70;;;11.40;99.90;;;;;;7390542;19;20787;-72
2023/03/12 12:35:03;;;;;;;1.23;0.60;;;11.60;99.90;;;;;;7389300;19;20630;-71
2023/03/12 12:37:49;;;;;;;0.77;0.70;;;11.70;99.90;;;;;;7390693;19;20142;-74
2023/03/12 12:40:20;;;;;;;2.93;0.80;;;11.70;99.90;;;;;;7390873;19;20135;-74
2023/03/12 12:42:51;;;;;;;1.53;1.00;;;11.70;99.90;;;;;;7390505;19;20631;-74
2023/03/12 12:45:19;;;;;;;3.10;0.80;;;11.80;99.90;;;;;;7390905;19;20201;-74
2023/03/12 12:48:00;;;;;;;2.83;0.87;;;11.70;99.90;;;;;;7390028;19;20138;-73
2023/03/12 12:50:31;;;;;;;2.20;0.90;;;12.00;99.90;;;;;;7382087;19;20134;-74
2023/03/12 12:53:21;;;;;;;2.40;1.10;;;11.90;99.90;;;;;;7388167;19;20265;-73
2023/03/12 12:56:12;;;;;;;2.88;0.80;;;12.10;99.90;;;;;;7391362;19;20146;-73
2023/03/12 12:59:02;;;;;;;2.50;0.90;;;12.10;99.90;;;;;;7391860;19;20135;-73
2023/03/12 13:01:30;;;;;;;3.92;1.20;;;12.10;99.90;;;;;;7386571;19;20142;-72
2023/03/12 13:04:09;;;;;;;3.03;0.70;;;12.20;99.90;;;;;;7386399;19;20174;-73
2023/03/12 13:06:57;;;;;;;2.37;0.90;;;12.00;99.90;;;;;;7389086;19;20156;-74
2023/03/12 13:09:45;;;;;;;2.42;1.33;;;12.00;99.90;;;;;;7384713;19;20163;-73